sensor_id;sensor_type;location;lat;lon;timestamp;pressure;altitude;pressure_sealevel;temperature;humidity
3812;BME280;1921;49.368;11.068;2023-05-23T00:01:54;97249.88;;;17.78;76.94
3812;BME280;1921;49.368;11.068;2023-05-23T00:04:19;97285.41;;;17.98;76.92
3812;BME280;1921;49.368;11.068;2023-05-23T00:06:45;97259.63;;;17.77;77.08
3812;BME280;1921;49.368;11.068;2023-05-23T00:09:13;97284.16;;;17.89;77.50
3812;BME280;1921;49.368;11.068;2023-05-23T00:11:39;97299.63;;;17.97;77.82
3812;BME280;1921;49.368;11.068;2023-05-23T00:14:11;97239.88;;;17.44;77.86
3812;BME280;1921;49.368;11.068;2023-05-23T00:16:39;97320.38;;;17.94;78.78
3812;BME280;1921;49.368;11.068;2023-05-23T00:19:06;97319.69;;;17.98;79.29
3812;BME280;1921;49.368;11.068;2023-05-23T00:21:32;97330.13;;;18.05;79.93
3812;BME280;1921;49.368;11.068;2023-05-23T00:23:58;97313.63;;;18.10;79.96
3812;BME280;1921;49.368;11.068;2023-05-23T00:26:24;97265.59;;;17.84;79.66
3812;BME280;1921;49.368;11.068;2023-05-23T00:28:50;97290.78;;;18.03;79.18
3812;BME280;1921;49.368;11.068;2023-05-23T00:31:15;97280.59;;;17.95;79.96
3812;BME280;1921;49.368;11.068;2023-05-23T00:33:42;97294.44;;;18.14;79.52
3812;BME280;1921;49.368;11.068;2023-05-23T00:36:07;97349.78;;;18.49;79.14
3812;BME280;1921;49.368;11.068;2023-05-23T00:38:33;97330.50;;;18.49;79.22
3812;BME280;1921;49.368;11.068;2023-05-23T00:41:00;97318.47;;;18.41;78.40
3812;BME280;1921;49.368;11.068;2023-05-23T00:43:26;97300.69;;;18.37;78.12
3812;BME280;1921;49.368;11.068;2023-05-23T00:45:52;97360.44;;;18.54;78.59
3812;BME280;1921;49.368;11.068;2023-05-23T00:48:17;97326.28;;;18.36;78.52
3812;BME280;1921;49.368;11.068;2023-05-23T00:50:44;97308.28;;;18.33;78.73
3812;BME280;1921;49.368;11.068;2023-05-23T00:53:10;97286.75;;;18.13;79.15
3812;BME280;1921;49.368;11.068;2023-05-23T00:55:37;97205.41;;;17.58;78.70
3812;BME280;1921;49.368;11.068;2023-05-23T00:58:03;97264.97;;;17.94;78.87
3812;BME280;1921;49.368;11.068;2023-05-23T01:00:31;97352.41;;;18.49;79.28
3812;BME280;1921;49.368;11.068;2023-05-23T01:02:58;97323.91;;;18.23;79.08
3812;BME280;1921;49.368;11.068;2023-05-23T01:05:25;97289.75;;;17.93;78.99
3812;BME280;1921;49.368;11.068;2023-05-23T01:07:52;97320.84;;;18.14;79.28
3812;BME280;1921;49.368;11.068;2023-05-23T01:10:23;97356.72;;;18.39;80.55
3812;BME280;1921;49.368;11.068;2023-05-23T01:21:23;97295.72;;;17.88;81.27
3812;BME280;1921;49.368;11.068;2023-05-23T01:24:20;97341.25;;;18.19;82.54
3812;BME280;1921;49.368;11.068;2023-05-23T01:27:14;97338.50;;;18.14;81.70
3812;BME280;1921;49.368;11.068;2023-05-23T01:29:56;97298.47;;;17.93;81.59
3812;BME280;1921;49.368;11.068;2023-05-23T01:32:24;97332.66;;;18.12;81.31
3812;BME280;1921;49.368;11.068;2023-05-23T01:34:52;97321.06;;;18.01;81.52
3812;BME280;1921;49.368;11.068;2023-05-23T01:37:18;97278.78;;;17.72;81.45
3812;BME280;1921;49.368;11.068;2023-05-23T01:39:45;97368.09;;;18.16;82.09
3812;BME280;1921;49.368;11.068;2023-05-23T01:42:11;97294.25;;;17.81;82.35
3812;BME280;1921;49.368;11.068;2023-05-23T01:44:38;97328.97;;;18.01;82.45
3812;BME280;1921;49.368;11.068;2023-05-23T01:47:06;97304.13;;;17.85;83.88
3812;BME280;1921;49.368;11.068;2023-05-23T01:49:33;97330.13;;;18.05;83.87
3812;BME280;1921;49.368;11.068;2023-05-23T01:52:01;97295.41;;;17.96;82.74
3812;BME280;1921;49.368;11.068;2023-05-23T01:54:28;97325.19;;;18.20;82.78
3812;BME280;1921;49.368;11.068;2023-05-23T01:56:56;97258.22;;;17.86;82.44
3812;BME280;1921;49.368;11.068;2023-05-23T01:59:22;97313.47;;;18.28;82.19
3812;BME280;1921;49.368;11.068;2023-05-23T02:01:48;97300.16;;;18.23;81.90
3812;BME280;1921;49.368;11.068;2023-05-23T02:04:14;97303.34;;;18.25;82.04
3812;BME280;1921;49.368;11.068;2023-05-23T02:06:40;97305.53;;;18.28;81.71
3812;BME280;1921;49.368;11.068;2023-05-23T02:09:07;97270.00;;;18.07;81.66
3812;BME280;1921;49.368;11.068;2023-05-23T02:11:34;97303.69;;;18.28;81.95
3812;BME280;1921;49.368;11.068;2023-05-23T02:13:59;97306.91;;;18.30;81.41
3812;BME280;1921;49.368;11.068;2023-05-23T02:16:26;97325.69;;;18.46;81.21
3812;BME280;1921;49.368;11.068;2023-05-23T02:18:52;97323.97;;;18.51;81.02
3812;BME280;1921;49.368;11.068;2023-05-23T02:21:23;97311.91;;;18.44;80.74
3812;BME280;1921;49.368;11.068;2023-05-23T02:23:49;97334.03;;;18.54;80.41
3812;BME280;1921;49.368;11.068;2023-05-23T02:26:15;97311.34;;;18.42;80.39
3812;BME280;1921;49.368;11.068;2023-05-23T02:28:41;97301.88;;;18.29;80.40
3812;BME280;1921;49.368;11.068;2023-05-23T02:31:06;97311.38;;;18.30;80.47
3812;BME280;1921;49.368;11.068;2023-05-23T02:33:32;97295.34;;;18.20;80.60
3812;BME280;1921;49.368;11.068;2023-05-23T02:35:58;97315.63;;;18.31;80.88
3812;BME280;1921;49.368;11.068;2023-05-23T02:38:23;97316.41;;;18.32;80.96
3812;BME280;1921;49.368;11.068;2023-05-23T02:40:51;97356.56;;;18.57;81.12
3812;BME280;1921;49.368;11.068;2023-05-23T02:43:20;97306.09;;;18.30;81.24
3812;BME280;1921;49.368;11.068;2023-05-23T02:45:46;97310.13;;;18.33;81.59
3812;BME280;1921;49.368;11.068;2023-05-23T02:48:12;97323.41;;;18.38;82.09
3812;BME280;1921;49.368;11.068;2023-05-23T02:50:37;97311.84;;;18.39;81.92
3812;BME280;1921;49.368;11.068;2023-05-23T02:53:03;97336.44;;;18.56;82.01
3812;BME280;1921;49.368;11.068;2023-05-23T02:55:29;97310.19;;;18.38;81.61
3812;BME280;1921;49.368;11.068;2023-05-23T02:57:56;97335.09;;;18.53;81.43
3812;BME280;1921;49.368;11.068;2023-05-23T03:00:24;97351.59;;;18.61;81.54
3812;BME280;1921;49.368;11.068;2023-05-23T03:02:49;97315.41;;;18.33;81.84
3812;BME280;1921;49.368;11.068;2023-05-23T03:05:15;97325.59;;;18.41;81.94
3812;BME280;1921;49.368;11.068;2023-05-23T03:07:41;97355.03;;;18.61;81.87
3812;BME280;1921;49.368;11.068;2023-05-23T03:10:09;97334.22;;;18.36;82.01
3812;BME280;1921;49.368;11.068;2023-05-23T03:12:34;97303.16;;;18.15;81.96
3812;BME280;1921;49.368;11.068;2023-05-23T03:15:01;97373.56;;;18.49;81.84
3812;BME280;1921;49.368;11.068;2023-05-23T03:17:27;97345.13;;;18.28;82.45
3812;BME280;1921;49.368;11.068;2023-05-23T03:19:52;97355.25;;;18.19;82.91
3812;BME280;1921;49.368;11.068;2023-05-23T03:22:19;97357.56;;;18.16;82.87
3812;BME280;1921;49.368;11.068;2023-05-23T03:24:44;97334.28;;;17.89;84.33
3812;BME280;1921;49.368;11.068;2023-05-23T03:27:10;97351.84;;;17.95;84.80
3812;BME280;1921;49.368;11.068;2023-05-23T03:29:36;97328.53;;;17.81;85.42
3812;BME280;1921;49.368;11.068;2023-05-23T03:32:02;97335.91;;;17.90;85.40
3812;BME280;1921;49.368;11.068;2023-05-23T03:34:27;97350.00;;;17.84;85.47
3812;BME280;1921;49.368;11.068;2023-05-23T03:36:54;97369.84;;;18.10;85.57
3812;BME280;1921;49.368;11.068;2023-05-23T03:39:20;97345.88;;;17.77;85.71
3812;BME280;1921;49.368;11.068;2023-05-23T03:41:46;97376.03;;;17.92;86.44
3812;BME280;1921;49.368;11.068;2023-05-23T03:44:11;97330.81;;;17.54;86.30
3812;BME280;1921;49.368;11.068;2023-05-23T03:46:37;97342.16;;;17.66;86.65
3812;BME280;1921;49.368;11.068;2023-05-23T03:49:03;97357.69;;;17.74;86.53
3812;BME280;1921;49.368;11.068;2023-05-23T03:51:29;97360.69;;;17.78;86.64
3812;BME280;1921;49.368;11.068;2023-05-23T03:53:56;97400.25;;;17.89;86.94
3812;BME280;1921;49.368;11.068;2023-05-23T03:56:21;97412.28;;;17.85;87.49
3812;BME280;1921;49.368;11.068;2023-05-23T03:58:47;97359.81;;;17.54;88.12
3812;BME280;1921;49.368;11.068;2023-05-23T04:01:13;97402.06;;;17.77;87.86
3812;BME280;1921;49.368;11.068;2023-05-23T04:03:39;97360.25;;;17.50;88.17
3812;BME280;1921;49.368;11.068;2023-05-23T04:06:04;97404.00;;;17.82;87.75
3812;BME280;1921;49.368;11.068;2023-05-23T04:08:31;97354.19;;;17.62;87.81
3812;BME280;1921;49.368;11.068;2023-05-23T04:10:59;97333.44;;;17.54;87.33
3812;BME280;1921;49.368;11.068;2023-05-23T04:13:26;97368.28;;;17.56;87.60
3812;BME280;1921;49.368;11.068;2023-05-23T04:15:52;97348.78;;;17.57;88.33
3812;BME280;1921;49.368;11.068;2023-05-23T04:18:21;97402.66;;;18.02;87.98
3812;BME280;1921;49.368;11.068;2023-05-23T04:20:47;97363.31;;;17.89;86.83
3812;BME280;1921;49.368;11.068;2023-05-23T04:23:13;97363.19;;;17.96;86.25
3812;BME280;1921;49.368;11.068;2023-05-23T04:25:38;97336.22;;;17.82;86.75
3812;BME280;1921;49.368;11.068;2023-05-23T04:28:04;97265.13;;;17.40;85.88
3812;BME280;1921;49.368;11.068;2023-05-23T04:30:31;97368.56;;;18.24;85.52
3812;BME280;1921;49.368;11.068;2023-05-23T04:32:57;97378.16;;;18.42;84.47
3812;BME280;1921;49.368;11.068;2023-05-23T04:35:25;97418.31;;;18.68;84.20
3812;BME280;1921;49.368;11.068;2023-05-23T04:37:56;97359.91;;;18.41;84.05
3812;BME280;1921;49.368;11.068;2023-05-23T04:40:23;97364.84;;;18.37;84.47
3812;BME280;1921;49.368;11.068;2023-05-23T04:42:49;97412.91;;;18.74;83.24
3812;BME280;1921;49.368;11.068;2023-05-23T04:45:18;97412.78;;;18.81;83.53
3812;BME280;1921;49.368;11.068;2023-05-23T04:47:45;97385.47;;;18.64;83.14
3812;BME280;1921;49.368;11.068;2023-05-23T04:50:11;97380.66;;;18.61;82.68
3812;BME280;1921;49.368;11.068;2023-05-23T04:52:37;97393.28;;;18.59;83.41
3812;BME280;1921;49.368;11.068;2023-05-23T04:55:03;97393.84;;;18.61;83.88
3812;BME280;1921;49.368;11.068;2023-05-23T04:57:29;97402.47;;;18.56;84.00
3812;BME280;1921;49.368;11.068;2023-05-23T04:59:54;97402.47;;;18.68;83.72
3812;BME280;1921;49.368;11.068;2023-05-23T05:02:21;97424.50;;;18.85;83.24
3812;BME280;1921;49.368;11.068;2023-05-23T05:04:47;97410.63;;;18.78;82.89
3812;BME280;1921;49.368;11.068;2023-05-23T05:07:12;97385.47;;;18.64;82.79
3812;BME280;1921;49.368;11.068;2023-05-23T05:09:38;97396.50;;;18.61;83.35
3812;BME280;1921;49.368;11.068;2023-05-23T05:12:04;97405.72;;;18.70;83.26
3812;BME280;1921;49.368;11.068;2023-05-23T05:14:30;97468.59;;;19.25;84.25
3812;BME280;1921;49.368;11.068;2023-05-23T05:16:56;97402.78;;;19.12;81.54
3812;BME280;1921;49.368;11.068;2023-05-23T05:19:22;97417.28;;;19.54;80.04
3812;BME280;1921;49.368;11.068;2023-05-23T05:21:49;97413.91;;;19.87;77.31
3812;BME280;1921;49.368;11.068;2023-05-23T05:24:15;97406.19;;;20.25;75.41
3812;BME280;1921;49.368;11.068;2023-05-23T05:26:41;97441.38;;;20.76;73.42
3812;BME280;1921;49.368;11.068;2023-05-23T05:29:07;97455.34;;;21.37;71.33
3812;BME280;1921;49.368;11.068;2023-05-23T05:31:33;97446.09;;;21.71;70.64
3812;BME280;1921;49.368;11.068;2023-05-23T05:34:00;97388.66;;;21.60;67.13
3812;BME280;1921;49.368;11.068;2023-05-23T05:36:26;97431.81;;;22.10;66.70
3812;BME280;1921;49.368;11.068;2023-05-23T05:38:51;97457.50;;;22.36;67.00
3812;BME280;1921;49.368;11.068;2023-05-23T05:41:17;97441.84;;;22.02;65.83
3812;BME280;1921;49.368;11.068;2023-05-23T05:43:44;97431.81;;;21.23;69.31
3812;BME280;1921;49.368;11.068;2023-05-23T05:46:10;97436.78;;;21.15;69.83
3812;BME280;1921;49.368;11.068;2023-05-23T05:48:36;97430.56;;;20.82;71.37
3812;BME280;1921;49.368;11.068;2023-05-23T05:51:02;97440.00;;;20.73;72.61
3812;BME280;1921;49.368;11.068;2023-05-23T05:53:28;97437.47;;;20.61;72.51
3812;BME280;1921;49.368;11.068;2023-05-23T05:55:54;97442.78;;;20.44;75.36
3812;BME280;1921;49.368;11.068;2023-05-23T05:58:19;97463.72;;;20.85;73.35
3812;BME280;1921;49.368;11.068;2023-05-23T06:00:46;97448.31;;;21.26;71.09
3812;BME280;1921;49.368;11.068;2023-05-23T06:03:13;97406.75;;;21.63;68.30
3812;BME280;1921;49.368;11.068;2023-05-23T06:05:40;97460.41;;;22.35;64.93
3812;BME280;1921;49.368;11.068;2023-05-23T06:08:06;97437.22;;;22.72;65.13
3812;BME280;1921;49.368;11.068;2023-05-23T06:10:32;97432.91;;;23.19;62.60
3812;BME280;1921;49.368;11.068;2023-05-23T06:12:58;97433.09;;;23.02;60.24
3812;BME280;1921;49.368;11.068;2023-05-23T06:15:25;97420.78;;;22.80;62.19
3812;BME280;1921;49.368;11.068;2023-05-23T06:17:51;97431.09;;;23.55;60.08
3812;BME280;1921;49.368;11.068;2023-05-23T06:20:17;97429.41;;;23.13;60.17
3812;BME280;1921;49.368;11.068;2023-05-23T06:22:42;97441.91;;;23.07;58.66
3812;BME280;1921;49.368;11.068;2023-05-23T06:25:08;97458.47;;;23.35;57.84
3812;BME280;1921;49.368;11.068;2023-05-23T06:27:34;97422.47;;;23.02;58.50
3812;BME280;1921;49.368;11.068;2023-05-23T06:30:00;97457.59;;;22.99;60.29
3812;BME280;1921;49.368;11.068;2023-05-23T06:32:25;97433.03;;;22.34;60.55
3812;BME280;1921;49.368;11.068;2023-05-23T06:34:51;97434.16;;;22.43;60.59
3812;BME280;1921;49.368;11.068;2023-05-23T06:37:17;97462.91;;;22.99;59.78
3812;BME280;1921;49.368;11.068;2023-05-23T06:39:43;97462.16;;;23.19;59.50
3812;BME280;1921;49.368;11.068;2023-05-23T06:42:09;97461.94;;;22.73;60.14
3812;BME280;1921;49.368;11.068;2023-05-23T06:44:34;97439.13;;;22.82;59.92
3812;BME280;1921;49.368;11.068;2023-05-23T06:47:00;97445.31;;;22.08;62.58
3812;BME280;1921;49.368;11.068;2023-05-23T06:49:26;97490.94;;;20.97;69.88
3812;BME280;1921;49.368;11.068;2023-05-23T06:51:52;97459.72;;;21.80;65.27
3812;BME280;1921;49.368;11.068;2023-05-23T06:54:18;97445.78;;;22.32;62.28
3812;BME280;1921;49.368;11.068;2023-05-23T06:56:44;97457.63;;;22.56;62.28
3812;BME280;1921;49.368;11.068;2023-05-23T06:59:10;97481.94;;;22.80;60.38
3812;BME280;1921;49.368;11.068;2023-05-23T07:01:35;97462.00;;;22.83;60.85
3812;BME280;1921;49.368;11.068;2023-05-23T07:04:01;97464.22;;;23.01;58.96
3812;BME280;1921;49.368;11.068;2023-05-23T07:06:27;97481.06;;;23.17;58.61
3812;BME280;1921;49.368;11.068;2023-05-23T07:08:53;97447.97;;;22.88;58.66
3812;BME280;1921;49.368;11.068;2023-05-23T07:11:21;97440.94;;;22.71;59.64
3812;BME280;1921;49.368;11.068;2023-05-23T07:13:47;97480.63;;;22.83;59.70
3812;BME280;1921;49.368;11.068;2023-05-23T07:16:12;97451.03;;;22.22;62.65
3812;BME280;1921;49.368;11.068;2023-05-23T07:18:38;97391.00;;;21.52;63.71
3812;BME280;1921;49.368;11.068;2023-05-23T07:21:04;97377.31;;;21.11;65.19
3812;BME280;1921;49.368;11.068;2023-05-23T07:23:33;97481.69;;;21.43;66.87
3812;BME280;1921;49.368;11.068;2023-05-23T07:25:59;97457.31;;;21.78;65.00
3812;BME280;1921;49.368;11.068;2023-05-23T07:28:27;97477.38;;;21.37;66.85
3812;BME280;1921;49.368;11.068;2023-05-23T07:30:54;97453.22;;;21.66;63.31
3812;BME280;1921;49.368;11.068;2023-05-23T07:33:22;97464.78;;;21.82;63.98
3812;BME280;1921;49.368;11.068;2023-05-23T07:35:48;97516.50;;;22.38;62.47
3812;BME280;1921;49.368;11.068;2023-05-23T07:38:14;97488.56;;;22.36;61.33
3812;BME280;1921;49.368;11.068;2023-05-23T07:40:40;97492.06;;;22.41;61.15
3812;BME280;1921;49.368;11.068;2023-05-23T07:43:06;97472.63;;;22.30;60.80
3812;BME280;1921;49.368;11.068;2023-05-23T07:45:31;97487.50;;;22.32;61.21
3812;BME280;1921;49.368;11.068;2023-05-23T07:47:57;97507.78;;;22.43;61.18
3812;BME280;1921;49.368;11.068;2023-05-23T07:50:23;97477.94;;;22.30;60.85
3812;BME280;1921;49.368;11.068;2023-05-23T07:52:49;97477.31;;;21.59;65.05
3812;BME280;1921;49.368;11.068;2023-05-23T07:55:16;97487.63;;;21.83;63.89
3812;BME280;1921;49.368;11.068;2023-05-23T07:57:42;97496.22;;;21.95;63.58
3812;BME280;1921;49.368;11.068;2023-05-23T08:00:08;97403.50;;;20.58;67.21
3812;BME280;1921;49.368;11.068;2023-05-23T08:02:34;97543.19;;;21.62;66.83
3812;BME280;1921;49.368;11.068;2023-05-23T08:05:01;97514.94;;;21.07;66.79
3812;BME280;1921;49.368;11.068;2023-05-23T08:07:26;97475.63;;;20.82;66.45
3812;BME280;1921;49.368;11.068;2023-05-23T08:09:52;97549.56;;;21.22;67.56
3812;BME280;1921;49.368;11.068;2023-05-23T08:12:18;97555.94;;;21.21;68.59
3812;BME280;1921;49.368;11.068;2023-05-23T08:14:44;97540.81;;;21.22;68.07
3812;BME280;1921;49.368;11.068;2023-05-23T08:17:11;97551.63;;;21.59;66.21
3812;BME280;1921;49.368;11.068;2023-05-23T08:19:37;97526.03;;;21.48;65.96
3812;BME280;1921;49.368;11.068;2023-05-23T08:22:03;97501.22;;;21.91;63.88
3812;BME280;1921;49.368;11.068;2023-05-23T08:24:29;97498.66;;;22.34;60.62
3812;BME280;1921;49.368;11.068;2023-05-23T08:26:55;97516.03;;;22.89;57.68
3812;BME280;1921;49.368;11.068;2023-05-23T08:29:21;97532.16;;;23.19;57.19
3812;BME280;1921;49.368;11.068;2023-05-23T08:31:47;97509.06;;;22.82;56.99
3812;BME280;1921;49.368;11.068;2023-05-23T08:34:12;97497.91;;;22.80;57.53
3812;BME280;1921;49.368;11.068;2023-05-23T08:36:39;97552.34;;;23.98;54.41
3812;BME280;1921;49.368;11.068;2023-05-23T08:39:05;97450.72;;;23.18;53.28
3812;BME280;1921;49.368;11.068;2023-05-23T08:41:30;97540.91;;;23.93;52.52
3812;BME280;1921;49.368;11.068;2023-05-23T08:43:56;97546.50;;;24.11;51.48
3812;BME280;1921;49.368;11.068;2023-05-23T08:46:22;97492.84;;;23.52;52.81
3812;BME280;1921;49.368;11.068;2023-05-23T08:48:54;97490.44;;;23.45;51.09
3812;BME280;1921;49.368;11.068;2023-05-23T08:51:26;97554.09;;;23.57;50.94
3812;BME280;1921;49.368;11.068;2023-05-23T08:53:53;97532.47;;;23.33;50.85
3812;BME280;1921;49.368;11.068;2023-05-23T08:56:21;97518.53;;;23.05;51.43
3812;BME280;1921;49.368;11.068;2023-05-23T08:58:48;97526.59;;;22.73;54.41
3812;BME280;1921;49.368;11.068;2023-05-23T09:01:14;97485.91;;;22.30;55.65
3812;BME280;1921;49.368;11.068;2023-05-23T09:03:40;97532.47;;;22.80;54.95
3812;BME280;1921;49.368;11.068;2023-05-23T09:06:09;97506.53;;;22.18;56.48
3812;BME280;1921;49.368;11.068;2023-05-23T09:08:36;97554.16;;;23.72;52.51
3812;BME280;1921;49.368;11.068;2023-05-23T09:11:04;97499.75;;;22.80;52.12
3812;BME280;1921;49.368;11.068;2023-05-23T09:13:32;97513.91;;;22.43;53.88
3812;BME280;1921;49.368;11.068;2023-05-23T09:18:43;97546.06;;;23.36;51.75
3812;BME280;1921;49.368;11.068;2023-05-23T09:21:11;97523.47;;;23.49;51.88
3812;BME280;1921;49.368;11.068;2023-05-23T09:23:39;97531.78;;;23.00;52.74
3812;BME280;1921;49.368;11.068;2023-05-23T09:26:08;97525.56;;;23.47;52.22
3812;BME280;1921;49.368;11.068;2023-05-23T09:28:36;97491.06;;;22.95;52.53
3812;BME280;1921;49.368;11.068;2023-05-23T09:31:04;97529.38;;;22.94;53.34
3812;BME280;1921;49.368;11.068;2023-05-23T09:33:45;97548.78;;;23.57;52.94
3812;BME280;1921;49.368;11.068;2023-05-23T09:36:14;97527.47;;;23.57;51.30
3812;BME280;1921;49.368;11.068;2023-05-23T09:38:43;97515.63;;;24.36;49.95
3812;BME280;1921;49.368;11.068;2023-05-23T09:41:10;97528.72;;;25.28;44.75
3812;BME280;1921;49.368;11.068;2023-05-23T09:43:39;97566.63;;;25.30;45.07
3812;BME280;1921;49.368;11.068;2023-05-23T09:46:10;97552.81;;;25.12;45.83
3812;BME280;1921;49.368;11.068;2023-05-23T09:48:37;97542.81;;;25.38;46.46
3812;BME280;1921;49.368;11.068;2023-05-23T09:51:08;97605.09;;;25.93;45.45
3812;BME280;1921;49.368;11.068;2023-05-23T09:53:34;97577.91;;;25.71;46.42
3812;BME280;1921;49.368;11.068;2023-05-23T09:56:02;97540.53;;;25.16;46.52
3812;BME280;1921;49.368;11.068;2023-05-23T09:58:28;97567.81;;;24.22;48.63
3812;BME280;1921;49.368;11.068;2023-05-23T10:00:56;97564.34;;;24.06;49.05
3812;BME280;1921;49.368;11.068;2023-05-23T10:03:52;97598.50;;;24.34;49.09
3812;BME280;1921;49.368;11.068;2023-05-23T10:06:43;97582.97;;;23.80;47.88
3812;BME280;1921;49.368;11.068;2023-05-23T10:09:16;97567.47;;;23.67;48.43
3812;BME280;1921;49.368;11.068;2023-05-23T10:14:24;97558.72;;;23.87;47.66
3812;BME280;1921;49.368;11.068;2023-05-23T10:17:18;97597.19;;;24.37;45.75
3812;BME280;1921;49.368;11.068;2023-05-23T10:19:56;97557.88;;;23.71;46.50
3812;BME280;1921;49.368;11.068;2023-05-23T10:22:23;97570.38;;;23.60;47.31
3812;BME280;1921;49.368;11.068;2023-05-23T10:24:50;97556.28;;;23.65;47.11
3812;BME280;1921;49.368;11.068;2023-05-23T10:27:15;97549.19;;;24.16;45.67
3812;BME280;1921;49.368;11.068;2023-05-23T10:29:43;97573.47;;;24.35;46.14
3812;BME280;1921;49.368;11.068;2023-05-23T10:32:09;97580.06;;;24.28;46.05
3812;BME280;1921;49.368;11.068;2023-05-23T10:34:40;97603.06;;;24.54;46.07
3812;BME280;1921;49.368;11.068;2023-05-23T10:37:19;97612.63;;;24.76;45.93
3812;BME280;1921;49.368;11.068;2023-05-23T10:40:06;97564.41;;;24.36;43.79
3812;BME280;1921;49.368;11.068;2023-05-23T10:43:01;97618.22;;;25.10;43.76
3812;BME280;1921;49.368;11.068;2023-05-23T10:45:28;97564.28;;;25.18;41.91
3812;BME280;1921;49.368;11.068;2023-05-23T10:47:54;97558.38;;;25.21;41.27
3812;BME280;1921;49.368;11.068;2023-05-23T10:50:35;97607.28;;;25.81;41.19
3812;BME280;1921;49.368;11.068;2023-05-23T10:53:04;97567.31;;;25.61;42.01
3812;BME280;1921;49.368;11.068;2023-05-23T10:55:34;97563.16;;;25.34;41.53
3812;BME280;1921;49.368;11.068;2023-05-23T10:58:19;97573.47;;;25.56;41.66
3812;BME280;1921;49.368;11.068;2023-05-23T11:00:54;97588.41;;;25.57;41.17
3812;BME280;1921;49.368;11.068;2023-05-23T11:06:43;97618.69;;;25.32;42.81
3812;BME280;1921;49.368;11.068;2023-05-23T11:09:14;97631.44;;;25.45;41.18
3812;BME280;1921;49.368;11.068;2023-05-23T11:17:18;97582.75;;;24.33;43.17
3812;BME280;1921;49.368;11.068;2023-05-23T11:20:08;97552.91;;;24.05;42.98
3812;BME280;1921;49.368;11.068;2023-05-23T11:22:37;97588.88;;;23.98;43.48
3812;BME280;1921;49.368;11.068;2023-05-23T11:25:08;97591.69;;;23.66;44.70
3812;BME280;1921;49.368;11.068;2023-05-23T11:27:39;97558.47;;;23.94;44.80
3812;BME280;1921;49.368;11.068;2023-05-23T11:32:39;97610.72;;;25.17;41.46
3812;BME280;1921;49.368;11.068;2023-05-23T11:35:09;97553.16;;;24.80;41.15
3812;BME280;1921;49.368;11.068;2023-05-23T11:37:37;97613.94;;;24.93;42.03
3812;BME280;1921;49.368;11.068;2023-05-23T11:40:29;97642.38;;;25.54;41.88
3812;BME280;1921;49.368;11.068;2023-05-23T11:42:56;97633.38;;;25.99;41.12
3812;BME280;1921;49.368;11.068;2023-05-23T11:45:23;97602.84;;;25.51;41.08
3812;BME280;1921;49.368;11.068;2023-05-23T11:47:49;97602.75;;;25.07;40.97
3812;BME280;1921;49.368;11.068;2023-05-23T11:50:15;97577.91;;;25.06;42.14
3812;BME280;1921;49.368;11.068;2023-05-23T11:52:41;97584.31;;;24.95;41.03
3812;BME280;1921;49.368;11.068;2023-05-23T11:55:09;97618.22;;;24.84;42.22
3812;BME280;1921;49.368;11.068;2023-05-23T11:57:38;97627.25;;;24.17;43.85
3812;BME280;1921;49.368;11.068;2023-05-23T12:00:09;97576.09;;;24.30;43.26
3812;BME280;1921;49.368;11.068;2023-05-23T12:02:40;97550.75;;;24.28;42.56
3812;BME280;1921;49.368;11.068;2023-05-23T12:05:11;97623.59;;;24.54;42.77
3812;BME280;1921;49.368;11.068;2023-05-23T12:07:41;97622.78;;;24.74;42.79
3812;BME280;1921;49.368;11.068;2023-05-23T12:10:09;97600.59;;;25.04;42.13
3812;BME280;1921;49.368;11.068;2023-05-23T12:12:36;97592.84;;;25.17;41.52
3812;BME280;1921;49.368;11.068;2023-05-23T12:15:02;97639.03;;;24.47;42.93
3812;BME280;1921;49.368;11.068;2023-05-23T12:17:29;97600.13;;;24.35;43.99
3812;BME280;1921;49.368;11.068;2023-05-23T12:19:55;97620.13;;;24.43;43.60
3812;BME280;1921;49.368;11.068;2023-05-23T12:22:24;97579.00;;;24.18;43.27
3812;BME280;1921;49.368;11.068;2023-05-23T12:24:57;97621.94;;;24.27;44.25
3812;BME280;1921;49.368;11.068;2023-05-23T12:27:30;97632.34;;;24.29;44.88
3812;BME280;1921;49.368;11.068;2023-05-23T12:30:08;97596.91;;;23.45;44.87
3812;BME280;1921;49.368;11.068;2023-05-23T12:32:43;97608.31;;;23.30;45.51
3812;BME280;1921;49.368;11.068;2023-05-23T12:35:11;97592.13;;;23.42;45.07
3812;BME280;1921;49.368;11.068;2023-05-23T12:37:44;97592.88;;;23.32;45.23
3812;BME280;1921;49.368;11.068;2023-05-23T12:40:14;97647.63;;;23.71;45.36
3812;BME280;1921;49.368;11.068;2023-05-23T12:42:51;97612.25;;;23.90;44.33
3812;BME280;1921;49.368;11.068;2023-05-23T12:45:21;97589.94;;;24.07;43.66
3812;BME280;1921;49.368;11.068;2023-05-23T12:47:47;97605.91;;;24.02;43.51
3812;BME280;1921;49.368;11.068;2023-05-23T12:50:13;97624.84;;;24.15;43.01
3812;BME280;1921;49.368;11.068;2023-05-23T12:52:39;97480.84;;;23.39;42.43
3812;BME280;1921;49.368;11.068;2023-05-23T12:55:06;97619.19;;;23.81;43.08
3812;BME280;1921;49.368;11.068;2023-05-23T12:57:34;97599.22;;;23.89;43.09
3812;BME280;1921;49.368;11.068;2023-05-23T13:00:00;97546.19;;;23.67;43.52
3812;BME280;1921;49.368;11.068;2023-05-23T13:02:26;97595.25;;;24.02;43.37
3812;BME280;1921;49.368;11.068;2023-05-23T13:04:53;97583.75;;;23.91;43.54
3812;BME280;1921;49.368;11.068;2023-05-23T13:07:18;97603.28;;;23.39;44.98
3812;BME280;1921;49.368;11.068;2023-05-23T13:09:44;97586.81;;;22.95;46.08
3812;BME280;1921;49.368;11.068;2023-05-23T13:12:10;97627.63;;;22.73;47.54
3812;BME280;1921;49.368;11.068;2023-05-23T13:14:37;97655.28;;;22.45;48.68
3812;BME280;1921;49.368;11.068;2023-05-23T13:17:03;97603.91;;;21.81;49.06
3812;BME280;1921;49.368;11.068;2023-05-23T13:19:29;97590.16;;;21.89;48.77
3812;BME280;1921;49.368;11.068;2023-05-23T13:21:54;97578.50;;;21.90;49.15
3812;BME280;1921;49.368;11.068;2023-05-23T13:24:20;97591.63;;;22.28;48.64
3812;BME280;1921;49.368;11.068;2023-05-23T13:26:46;97638.75;;;22.70;47.37
3812;BME280;1921;49.368;11.068;2023-05-23T13:29:11;97631.09;;;22.47;46.88
3812;BME280;1921;49.368;11.068;2023-05-23T13:31:37;97632.19;;;22.19;48.82
3812;BME280;1921;49.368;11.068;2023-05-23T13:34:03;97602.25;;;22.28;48.01
3812;BME280;1921;49.368;11.068;2023-05-23T13:36:29;97661.63;;;23.03;47.41
3812;BME280;1921;49.368;11.068;2023-05-23T13:38:55;97617.84;;;22.20;48.33